createdAt,value
2022-11-29T00:01:38.931Z,28
2022-11-29T00:04:09.587Z,36
2022-11-29T00:06:40.482Z,29
2022-11-29T00:09:12.103Z,32
2022-11-29T00:11:43.231Z,28
2022-11-29T00:14:14.056Z,29
2022-11-29T00:16:43.298Z,36
2022-11-29T00:19:14.967Z,36
2022-11-29T00:21:45.487Z,32
2022-11-29T00:24:16.370Z,40
2022-11-29T00:26:47.121Z,36
2022-11-29T00:29:17.714Z,29
2022-11-29T00:31:48.600Z,32
2022-11-29T00:34:19.954Z,36
2022-11-29T00:36:50.418Z,36
2022-11-29T00:39:21.440Z,35
2022-11-29T00:41:52.419Z,36
2022-11-29T00:44:23.298Z,36
2022-11-29T00:46:54.316Z,36
2022-11-29T00:49:24.583Z,32
2022-11-29T00:51:56.780Z,28
2022-11-29T00:54:28.048Z,30
2022-11-29T00:56:58.764Z,32
2022-11-29T00:59:29.377Z,32
2022-11-29T01:01:59.630Z,31
2022-11-29T01:04:30.971Z,28
2022-11-29T01:07:01.834Z,28
2022-11-29T01:09:32.696Z,32
2022-11-29T01:12:03.328Z,28
2022-11-29T01:14:33.752Z,32
2022-11-29T01:17:05.133Z,28
2022-11-29T01:19:36.504Z,28
2022-11-29T01:22:07.309Z,29
2022-11-29T01:24:37.880Z,28
2022-11-29T01:27:09.001Z,28
2022-11-29T01:29:39.614Z,29
2022-11-29T01:32:10.247Z,32
2022-11-29T01:34:41.173Z,28
2022-11-29T01:37:12.219Z,28
2022-11-29T01:39:43.068Z,28
2022-11-29T01:42:14.181Z,28
2022-11-29T01:44:45.351Z,32
2022-11-29T01:47:16.000Z,28
2022-11-29T01:49:46.653Z,28
2022-11-29T01:52:18.287Z,24
2022-11-29T01:54:49.354Z,28
2022-11-29T01:57:20.245Z,27
2022-11-29T01:59:51.197Z,28
2022-11-29T02:02:22.594Z,28
2022-11-29T02:04:53.751Z,25
2022-11-29T02:07:25.237Z,28
2022-11-29T02:09:56.216Z,28
2022-11-29T02:12:26.864Z,28
2022-11-29T02:14:57.887Z,25
2022-11-29T02:17:28.793Z,28
2022-11-29T02:20:00.122Z,28
2022-11-29T02:22:30.640Z,24
2022-11-29T02:25:01.066Z,27
2022-11-29T02:27:32.212Z,24
2022-11-29T02:30:03.708Z,23
2022-11-29T02:32:34.851Z,28
2022-11-29T02:35:05.814Z,28
2022-11-29T02:37:36.652Z,28
2022-11-29T02:40:07.025Z,25
2022-11-29T02:42:37.960Z,25
2022-11-29T02:45:09.208Z,25
2022-11-29T02:47:39.747Z,24
2022-11-29T02:50:10.613Z,28
2022-11-29T02:52:41.435Z,37
2022-11-29T02:55:13.137Z,36
2022-11-29T02:57:44.308Z,29
2022-11-29T03:00:15.304Z,29
2022-11-29T03:02:46.468Z,29
2022-11-29T03:05:17.664Z,34
2022-11-29T03:07:48.307Z,32
2022-11-29T03:10:19.027Z,31
2022-11-29T03:12:49.760Z,33
2022-11-29T03:15:21.007Z,29
2022-11-29T03:17:51.996Z,29
2022-11-29T03:20:22.893Z,33
2022-11-29T03:22:54.160Z,40
2022-11-29T03:25:25.645Z,34
2022-11-29T03:27:56.930Z,28
2022-11-29T03:30:28.301Z,28
2022-11-29T03:32:58.717Z,32
2022-11-29T03:35:29.905Z,35
2022-11-29T03:38:00.449Z,36
2022-11-29T03:40:31.261Z,32
2022-11-29T03:43:02.268Z,36
2022-11-29T03:45:33.696Z,32
2022-11-29T03:48:04.397Z,32
2022-11-29T03:50:35.171Z,28
2022-11-29T03:53:06.435Z,30
2022-11-29T03:55:38.087Z,32
2022-11-29T03:58:09.328Z,40
2022-11-29T04:00:43.698Z,32
2022-11-29T04:03:14.591Z,28
2022-11-29T04:05:45.460Z,29
2022-11-29T04:08:16.822Z,32
2022-11-29T04:10:48.168Z,28
2022-11-29T04:13:19.187Z,28
2022-11-29T04:15:49.980Z,28
2022-11-29T04:18:20.330Z,29
2022-11-29T04:20:51.186Z,32
2022-11-29T04:23:23.363Z,33
2022-11-29T04:25:54.303Z,36
2022-11-29T04:28:24.847Z,44
2022-11-29T04:30:56.520Z,44
2022-11-29T04:33:27.773Z,42
2022-11-29T04:35:58.498Z,43
2022-11-29T04:38:29.620Z,36
2022-11-29T04:41:00.590Z,37
2022-11-29T04:43:31.960Z,36
2022-11-29T04:46:02.530Z,32
2022-11-29T04:48:34.203Z,36
2022-11-29T04:51:05.090Z,36
2022-11-29T04:53:36.065Z,33
2022-11-29T04:56:06.970Z,32
2022-11-29T04:58:38.115Z,33
2022-11-29T05:01:08.903Z,36
2022-11-29T05:03:39.701Z,36
2022-11-29T05:06:10.762Z,32
2022-11-29T05:08:41.718Z,36
2022-11-29T05:11:12.949Z,32
2022-11-29T05:13:44.085Z,33
2022-11-29T05:16:15.400Z,32
2022-11-29T05:18:46.448Z,32
2022-11-29T05:21:17.099Z,29
2022-11-29T05:23:48.219Z,29
2022-11-29T05:26:19.087Z,32
2022-11-29T05:28:49.920Z,32
2022-11-29T05:31:21.365Z,27
2022-11-29T05:33:52.397Z,31
2022-11-29T05:36:23.516Z,32
2022-11-29T05:38:54.465Z,31
2022-11-29T05:41:25.731Z,32
2022-11-29T05:43:57.023Z,32
2022-11-29T05:46:27.859Z,28
2022-11-29T05:48:58.863Z,32
2022-11-29T05:51:30.341Z,32
2022-11-29T05:54:01.828Z,31
2022-11-29T05:56:32.704Z,36
2022-11-29T05:59:04.027Z,32
2022-11-29T06:01:34.825Z,30
2022-11-29T06:04:07.939Z,32
2022-11-29T06:06:38.092Z,31
2022-11-29T06:09:09.309Z,29
2022-11-29T06:11:39.622Z,32
2022-11-29T06:14:10.643Z,28
2022-11-29T06:16:41.268Z,34
2022-11-29T06:19:12.001Z,28
2022-11-29T06:21:43.500Z,32
2022-11-29T06:24:14.492Z,30
2022-11-29T06:26:45.752Z,28
2022-11-29T06:29:17.126Z,28
2022-11-29T06:31:48.421Z,28
2022-11-29T06:34:19.365Z,31
2022-11-29T06:36:51.180Z,39
2022-11-29T06:39:21.701Z,37
2022-11-29T06:41:52.774Z,36
2022-11-29T06:44:23.770Z,38
2022-11-29T06:46:54.394Z,36
2022-11-29T06:49:25.294Z,32
2022-11-29T06:51:56.786Z,31
2022-11-29T06:54:28.160Z,28
2022-11-29T06:56:58.706Z,31
2022-11-29T06:59:29.821Z,32
2022-11-29T07:02:00.946Z,32
2022-11-29T07:04:31.825Z,36
2022-11-29T07:07:02.590Z,32
2022-11-29T07:09:33.536Z,28
2022-11-29T07:12:04.207Z,28
2022-11-29T07:14:35.528Z,25
2022-11-29T07:17:06.387Z,28
2022-11-29T07:19:37.411Z,32
2022-11-29T07:22:08.219Z,36
2022-11-29T07:24:38.984Z,32
2022-11-29T07:27:09.845Z,36
2022-11-29T07:29:40.429Z,36
2022-11-29T07:32:11.000Z,28
2022-11-29T07:34:41.363Z,28
2022-11-29T07:37:12.137Z,28
2022-11-29T07:39:43.321Z,28
2022-11-29T07:42:13.909Z,32
2022-11-29T07:44:44.958Z,28
2022-11-29T07:47:15.231Z,28
2022-11-29T07:49:45.711Z,26
2022-11-29T07:52:16.245Z,32
2022-11-29T07:54:47.194Z,28
2022-11-29T07:57:17.861Z,24
2022-11-29T07:59:48.672Z,23
2022-11-29T08:02:19.709Z,24
2022-11-29T08:04:49.995Z,24
2022-11-29T08:07:20.938Z,36
2022-11-29T08:09:51.880Z,32
2022-11-29T08:12:22.807Z,26
2022-11-29T08:14:53.286Z,29
2022-11-29T08:17:23.764Z,25
2022-11-29T08:19:54.243Z,24
2022-11-29T08:22:24.449Z,24
2022-11-29T08:24:55.181Z,21
2022-11-29T08:27:26.063Z,28
2022-11-29T08:29:56.689Z,26
2022-11-29T08:32:27.849Z,28
2022-11-29T08:34:58.659Z,30
2022-11-29T08:37:29.243Z,28
2022-11-29T08:39:59.973Z,24
2022-11-29T08:42:30.580Z,24
2022-11-29T08:45:00.873Z,24
2022-11-29T08:47:31.649Z,28
2022-11-29T08:50:02.205Z,24
2022-11-29T08:52:32.913Z,28
2022-11-29T08:55:04.045Z,24
2022-11-29T08:57:41.703Z,22
2022-11-29T09:00:05.727Z,20
2022-11-29T09:02:36.487Z,24
2022-11-29T09:05:07.252Z,17
2022-11-29T09:07:38.122Z,20
2022-11-29T09:10:08.508Z,21
2022-11-29T09:12:38.838Z,20
2022-11-29T09:15:09.214Z,20
2022-11-29T09:17:39.781Z,20
2022-11-29T09:20:09.849Z,19
2022-11-29T09:22:40.657Z,20
2022-11-29T09:25:10.933Z,20
2022-11-29T09:27:41.793Z,24
2022-11-29T09:30:12.107Z,21
2022-11-29T09:32:42.738Z,24
2022-11-29T09:35:13.492Z,22
2022-11-29T09:37:43.987Z,23
2022-11-29T09:40:15.030Z,20
2022-11-29T09:42:46.122Z,25
2022-11-29T09:45:16.857Z,28
2022-11-29T09:47:47.280Z,24
2022-11-29T09:50:18.002Z,28
2022-11-29T09:52:48.264Z,21
2022-11-29T09:55:18.669Z,25
2022-11-29T09:57:49.361Z,20
2022-11-29T10:00:20.553Z,17
2022-11-29T10:02:50.813Z,28
2022-11-29T10:05:21.658Z,24
2022-11-29T10:07:52.251Z,28
2022-11-29T10:10:22.689Z,16
2022-11-29T10:12:53.323Z,22
2022-11-29T10:15:23.766Z,22
2022-11-29T10:17:54.762Z,19
2022-11-29T10:20:25.586Z,16
2022-11-29T10:22:56.140Z,16
2022-11-29T10:25:26.924Z,19
2022-11-29T10:27:58.106Z,16
2022-11-29T10:30:34.461Z,16
2022-11-29T10:33:05.337Z,21
2022-11-29T10:35:35.786Z,18
2022-11-29T10:38:35.015Z,17
2022-11-29T10:40:37.185Z,24
2022-11-29T10:43:08.042Z,28
2022-11-29T10:45:39.001Z,21
2022-11-29T10:48:09.972Z,17
2022-11-29T10:50:40.233Z,20
2022-11-29T10:53:11.103Z,28
2022-11-29T10:55:42.081Z,28
2022-11-29T10:58:13.324Z,18
2022-11-29T11:00:44.462Z,24
2022-11-29T11:03:14.803Z,24
2022-11-29T11:05:45.713Z,16
2022-11-29T11:08:16.053Z,21
2022-11-29T11:10:51.078Z,20
2022-11-29T11:13:17.171Z,24
2022-11-29T11:15:47.547Z,24
2022-11-29T11:18:18.496Z,24
2022-11-29T11:20:48.822Z,28
2022-11-29T11:23:19.579Z,24
2022-11-29T11:25:49.922Z,28
2022-11-29T11:28:20.586Z,28
2022-11-29T11:30:51.071Z,28
2022-11-29T11:33:21.794Z,27
2022-11-29T11:35:52.581Z,24
2022-11-29T11:38:23.267Z,24
2022-11-29T11:40:57.877Z,22
2022-11-29T11:43:24.539Z,28
2022-11-29T11:45:59.186Z,24
2022-11-29T11:48:30.077Z,24
2022-11-29T11:51:03.359Z,21
2022-11-29T11:53:32.127Z,21
2022-11-29T11:56:02.495Z,21
2022-11-29T11:58:33.088Z,24
2022-11-29T12:01:04.919Z,24
2022-11-29T12:03:34.923Z,23
2022-11-29T12:06:05.451Z,23
2022-11-29T12:08:36.679Z,24
2022-11-29T12:11:07.723Z,25
2022-11-29T12:13:37.914Z,26
2022-11-29T12:16:09.620Z,32
2022-11-29T12:18:40.655Z,26
2022-11-29T12:21:11.119Z,25
2022-11-29T12:23:41.815Z,32
2022-11-29T12:26:16.224Z,28
2022-11-29T12:28:43.512Z,22
2022-11-29T12:31:14.446Z,27
2022-11-29T12:33:45.164Z,28
2022-11-29T12:36:15.715Z,24
2022-11-29T12:38:46.257Z,24
2022-11-29T12:41:16.525Z,32
2022-11-29T12:43:47.472Z,28
2022-11-29T12:46:18.090Z,41
2022-11-29T12:48:48.722Z,32
2022-11-29T12:51:19.587Z,24
2022-11-29T12:53:50.102Z,28
2022-11-29T12:56:20.769Z,24
2022-11-29T12:58:51.902Z,24
2022-11-29T13:01:23.039Z,25
2022-11-29T13:03:53.761Z,21
2022-11-29T13:06:24.722Z,23
2022-11-29T13:08:55.025Z,24
2022-11-29T13:11:25.813Z,20
2022-11-29T13:14:08.195Z,29
2022-11-29T13:18:59.020Z,36
2022-11-29T13:21:29.547Z,36
2022-11-29T13:24:08.190Z,28
2022-11-29T13:26:30.943Z,36
2022-11-29T13:29:03.124Z,32
2022-11-29T13:31:33.893Z,28
2022-11-29T13:34:04.620Z,20
2022-11-29T13:36:36.208Z,28
2022-11-29T13:39:07.248Z,40
2022-11-29T13:41:38.693Z,36
2022-11-29T13:44:09.518Z,40
2022-11-29T13:46:40.657Z,24
2022-11-29T13:49:11.653Z,33
2022-11-29T13:51:43.371Z,24
2022-11-29T13:54:14.606Z,28
2022-11-29T13:56:46.315Z,29
2022-11-29T13:59:17.389Z,24
2022-11-29T14:01:48.889Z,20
2022-11-29T14:04:19.742Z,20
2022-11-29T14:06:50.915Z,28
2022-11-29T14:09:21.937Z,20
2022-11-29T14:11:53.077Z,20
2022-11-29T14:14:23.831Z,26
2022-11-29T14:16:54.572Z,32
2022-11-29T14:19:26.696Z,26
2022-11-29T14:21:56.470Z,20
2022-11-29T14:24:28.086Z,27
2022-11-29T14:26:59.447Z,24
2022-11-29T14:29:30.409Z,28
2022-11-29T14:32:02.266Z,25
2022-11-29T14:34:33.786Z,28
2022-11-29T14:37:04.953Z,28
2022-11-29T14:39:35.862Z,33
2022-11-29T14:42:07.143Z,24
2022-11-29T14:44:38.127Z,28
2022-11-29T14:47:09.261Z,25
2022-11-29T14:49:40.477Z,28
2022-11-29T14:52:11.898Z,24
2022-11-29T14:54:45.119Z,29
2022-11-29T14:57:14.983Z,32
2022-11-29T14:59:46.181Z,31
2022-11-29T15:02:17.381Z,32
2022-11-29T15:04:48.707Z,28
2022-11-29T15:07:20.306Z,28
2022-11-29T15:09:51.438Z,27
2022-11-29T15:12:22.623Z,28
2022-11-29T15:14:54.104Z,30
2022-11-29T15:17:25.320Z,28
2022-11-29T15:19:57.394Z,28
2022-11-29T15:22:28.746Z,28
2022-11-29T15:24:59.850Z,32
2022-11-29T15:27:30.981Z,28
2022-11-29T15:30:03.581Z,32
2022-11-29T15:32:35.772Z,28
2022-11-29T15:35:07.292Z,28
2022-11-29T15:37:41.557Z,32
2022-11-29T15:40:12.193Z,28
2022-11-29T15:42:43.556Z,42
2022-11-29T15:45:14.885Z,29
2022-11-29T15:47:46.141Z,40
2022-11-29T15:50:17.440Z,34
2022-11-29T15:52:50.650Z,32
2022-11-29T15:55:21.733Z,28
2022-11-29T15:57:52.713Z,36
2022-11-29T16:00:23.470Z,36
2022-11-29T16:02:55.065Z,36
2022-11-29T16:05:25.955Z,38
2022-11-29T16:07:56.776Z,25
2022-11-29T16:10:33.555Z,28
2022-11-29T16:12:59.810Z,28
2022-11-29T16:15:30.999Z,26
2022-11-29T16:18:02.102Z,28
2022-11-29T16:20:33.575Z,28
2022-11-29T16:23:04.580Z,32
2022-11-29T16:25:37.693Z,28
2022-11-29T16:30:44.445Z,28
2022-11-29T16:33:15.963Z,28
2022-11-29T16:35:46.940Z,28
2022-11-29T16:38:18.045Z,31
2022-11-29T16:40:48.824Z,32
2022-11-29T16:43:19.960Z,28
2022-11-29T16:45:51.373Z,29
2022-11-29T16:48:23.064Z,28
2022-11-29T16:50:53.903Z,26
2022-11-29T16:53:24.942Z,28
2022-11-29T16:55:56.264Z,32
2022-11-29T16:58:27.864Z,36
2022-11-29T17:00:59.405Z,34
2022-11-29T17:03:30.880Z,29
2022-11-29T17:06:02.190Z,37
2022-11-29T17:08:34.022Z,20
2022-11-29T17:11:05.904Z,20
2022-11-29T17:13:37.768Z,28
2022-11-29T17:16:09.306Z,28
2022-11-29T17:18:41.406Z,24
2022-11-29T17:21:15.384Z,32
2022-11-29T17:23:46.403Z,24
2022-11-29T17:26:18.520Z,24
2022-11-29T17:28:49.775Z,33
2022-11-29T17:31:21.033Z,21
2022-11-29T17:33:51.945Z,24
2022-11-29T17:36:23.487Z,36
2022-11-29T17:38:54.810Z,34
2022-11-29T17:41:25.764Z,28
2022-11-29T17:43:57.092Z,24
2022-11-29T17:46:29.837Z,32
2022-11-29T17:49:01.667Z,25
2022-11-29T17:54:03.898Z,24
2022-11-29T17:56:35.205Z,21
2022-11-29T17:59:06.850Z,23
2022-11-29T18:01:38.383Z,28
2022-11-29T18:04:09.846Z,24
2022-11-29T18:06:41.105Z,20
2022-11-29T18:09:12.986Z,30
2022-11-29T18:11:47.964Z,28
2022-11-29T18:14:15.647Z,30
2022-11-29T18:16:46.499Z,24
2022-11-29T18:19:17.684Z,28
2022-11-29T18:21:48.715Z,24
2022-11-29T18:24:19.755Z,24
2022-11-29T18:26:50.912Z,20
2022-11-29T18:29:22.314Z,19
2022-11-29T18:31:53.467Z,26
2022-11-29T18:34:24.576Z,28
2022-11-29T18:36:56.789Z,24
2022-11-29T18:39:28.585Z,20
2022-11-29T18:41:59.915Z,20
2022-11-29T18:44:31.231Z,24
2022-11-29T18:47:02.345Z,24
2022-11-29T18:49:33.540Z,17
2022-11-29T18:52:04.379Z,28
2022-11-29T18:54:35.991Z,28
2022-11-29T18:57:07.274Z,51
2022-11-29T18:59:38.609Z,31
2022-11-29T19:02:09.519Z,28
2022-11-29T19:04:41.271Z,28
2022-11-29T19:07:12.939Z,40
2022-11-29T19:09:45.440Z,39
2022-11-29T19:12:16.768Z,32
2022-11-29T19:14:49.922Z,36
2022-11-29T19:17:19.138Z,41
2022-11-29T19:19:50.572Z,28
2022-11-29T19:22:21.385Z,36
2022-11-29T19:24:52.488Z,32
2022-11-29T19:27:23.561Z,28
2022-11-29T19:29:55.491Z,24
2022-11-29T19:32:28.718Z,21
2022-11-29T19:35:00.139Z,24
2022-11-29T19:37:32.563Z,24
2022-11-29T19:40:04.852Z,24
2022-11-29T19:42:38.057Z,20
2022-11-29T19:45:16.796Z,16
2022-11-29T19:47:40.238Z,23
2022-11-29T19:50:11.239Z,25
2022-11-29T19:52:42.735Z,24
2022-11-29T19:55:13.974Z,28
2022-11-29T19:57:45.447Z,28
2022-11-29T20:00:16.683Z,24
2022-11-29T20:02:48.377Z,24
2022-11-29T20:05:19.912Z,24
2022-11-29T20:07:51.541Z,43
2022-11-29T20:10:23.067Z,36
2022-11-29T20:12:53.981Z,29
2022-11-29T20:15:25.257Z,28
2022-11-29T20:17:56.613Z,32
2022-11-29T20:20:30.782Z,34
2022-11-29T20:23:02.537Z,32
2022-11-29T20:25:33.644Z,36
2022-11-29T20:28:05.905Z,28
2022-11-29T20:30:37.497Z,28
2022-11-29T20:33:08.499Z,28
2022-11-29T20:35:39.420Z,27
2022-11-29T20:38:11.615Z,24
2022-11-29T20:40:43.482Z,24
2022-11-29T20:43:16.207Z,23
2022-11-29T20:45:48.016Z,24
2022-11-29T20:48:19.240Z,25
2022-11-29T20:50:50.640Z,25
2022-11-29T20:53:21.832Z,28
2022-11-29T20:55:53.814Z,28
2022-11-29T20:58:25.078Z,27
2022-11-29T21:00:56.435Z,28
2022-11-29T21:03:30.257Z,24
2022-11-29T21:06:01.518Z,28
2022-11-29T21:08:32.704Z,28
2022-11-29T21:11:03.976Z,21
2022-11-29T21:13:36.104Z,24
2022-11-29T21:16:08.856Z,28
2022-11-29T21:18:40.187Z,32
2022-11-29T21:21:11.149Z,20
2022-11-29T21:23:42.194Z,20
2022-11-29T21:26:16.341Z,28
2022-11-29T21:28:48.843Z,19
2022-11-29T21:31:19.962Z,28
2022-11-29T21:33:50.966Z,24
2022-11-29T21:36:22.048Z,28
2022-11-29T21:38:55.166Z,27
2022-11-29T21:41:24.952Z,21
2022-11-29T21:44:06.357Z,26
2022-11-29T21:46:28.410Z,24
2022-11-29T21:48:59.891Z,20
2022-11-29T21:51:31.369Z,24
2022-11-29T21:54:02.139Z,24
2022-11-29T21:56:34.292Z,17
2022-11-29T21:59:05.801Z,24
2022-11-29T22:01:37.312Z,24
2022-11-29T22:04:08.290Z,28
2022-11-29T22:06:39.753Z,20
2022-11-29T22:09:10.560Z,20
2022-11-29T22:11:41.994Z,24
2022-11-29T22:14:13.300Z,21
2022-11-29T22:16:44.496Z,16
2022-11-29T22:19:15.729Z,22
2022-11-29T22:21:46.734Z,24
2022-11-29T22:24:18.441Z,19
2022-11-29T22:26:49.722Z,21
2022-11-29T22:29:20.973Z,24
2022-11-29T22:31:52.022Z,20
2022-11-29T22:34:22.648Z,16
2022-11-29T22:36:54.794Z,16
2022-11-29T22:39:26.577Z,13
2022-11-29T22:41:58.071Z,16
2022-11-29T22:44:29.442Z,16
2022-11-29T22:47:00.657Z,15
2022-11-29T22:49:32.385Z,16
2022-11-29T22:52:03.610Z,13
2022-11-29T22:54:34.965Z,12
2022-11-29T22:57:05.944Z,12
2022-11-29T22:59:37.192Z,8
2022-11-29T23:02:09.070Z,12
2022-11-29T23:04:40.181Z,12
2022-11-29T23:07:10.813Z,12
2022-11-29T23:09:42.017Z,8
2022-11-29T23:12:14.408Z,14
2022-11-29T23:14:48.265Z,14
2022-11-29T23:17:16.968Z,8
2022-11-29T23:19:47.531Z,12
2022-11-29T23:22:18.105Z,9
2022-11-29T23:24:49.223Z,12
2022-11-29T23:27:19.184Z,30
2022-11-29T23:29:49.134Z,12
2022-11-29T23:32:20.004Z,11
2022-11-29T23:34:51.208Z,17
2022-11-29T23:37:21.577Z,12
2022-11-29T23:39:52.149Z,8
2022-11-29T23:42:22.452Z,5
2022-11-29T23:44:53.706Z,10
2022-11-29T23:47:24.480Z,8
2022-11-29T23:49:54.905Z,8
2022-11-29T23:52:25.541Z,8
2022-11-29T23:54:56.076Z,4
2022-11-29T23:57:26.916Z,8
2022-11-29T23:59:57.291Z,12
